Time;durP1;ratioP1;P1;durP2;ratioP2;P2;SDS_P1;SDS_P2;PMS_P1;PMS_P2;Temp;Humidity;BMP_temperature;BMP_pressure;BME280_temperature;BME280_humidity;BME280_pressure;Samples;Min_cycle;Max_cycle;Signal;HPM_P1;HPM_P2
2022/06/13 00:00:21;;;;;;;;;;;;;;;28.71;31.94;99200.00;4510195;31;33559;-86
2022/06/13 00:02:48;;;;;;;;;;;;;;;28.65;32.18;99195.91;4513724;31;34099;-86
2022/06/13 00:05:16;;;;;;;;;;;;;;;28.77;32.03;99202.28;4515283;31;34468;-86
2022/06/13 00:07:43;;;;;;;;;;;;;;;28.54;32.24;99199.22;4513971;31;34910;-86
2022/06/13 00:10:11;;;;;;;;;;;;;;;28.53;32.11;99196.66;4505262;31;33038;-85
2022/06/13 00:12:40;;;;;;;;;;;;;;;28.56;31.93;99193.78;4499557;31;33839;-86
2022/06/13 00:15:07;;;;;;;;;;;;;;;28.56;31.94;99194.66;4499652;31;34404;-85
2022/06/13 00:17:35;;;;;;;;;;;;;;;28.41;32.11;99195.56;4497812;31;34070;-87
2022/06/13 00:20:03;;;;;;;;;;;;;;;28.49;32.08;99190.66;4489051;31;33573;-87
2022/06/13 00:22:31;;;;;;;;;;;;;;;28.48;32.13;99196.06;4482269;32;34561;-86
2022/06/13 00:24:58;;;;;;;;;;;;;;;28.39;32.31;99185.97;4482089;32;35293;-86
2022/06/13 00:27:25;;;;;;;;;;;;;;;28.36;32.40;99189.62;4483471;32;34387;-85
2022/06/13 00:29:52;;;;;;;;;;;;;;;28.31;32.37;99181.91;4497463;31;34234;-87
2022/06/13 00:32:20;;;;;;;;;;;;;;;28.39;32.27;99180.63;4514916;31;33948;-86
2022/06/13 00:34:48;;;;;;;;;;;;;;;28.43;32.14;99185.69;4515344;31;34398;-86
2022/06/13 00:37:15;;;;;;;;;;;;;;;28.39;31.86;99178.81;4514989;31;34981;-87
2022/06/13 00:39:43;;;;;;;;;;;;;;;28.20;32.24;99172.84;4508262;31;34061;-84
2022/06/13 00:42:10;;;;;;;;;;;;;;;28.24;32.20;99172.56;4497716;31;34256;-86
2022/06/13 00:44:38;;;;;;;;;;;;;;;28.19;32.19;99165.81;4498039;31;34431;-85
2022/06/13 00:47:05;;;;;;;;;;;;;;;28.24;32.06;99167.22;4499131;31;34353;-87
2022/06/13 00:49:37;;;;;;;;;;;;;;;28.18;32.14;99166.72;4503893;31;34053;-87
2022/06/13 00:52:17;;;;;;;;;;;;;;;28.23;32.00;99172.66;4514409;31;34320;-86
2022/06/13 00:54:45;;;;;;;;;;;;;;;28.19;32.06;99171.97;4513573;31;35113;-85
2022/06/13 00:57:13;;;;;;;;;;;;;;;28.19;32.16;99166.66;4514980;31;34051;-87
2022/06/13 00:59:41;;;;;;;;;;;;;;;28.17;32.17;99162.34;4501367;31;33768;-86
2022/06/13 01:02:08;;;;;;;;;;;;;;;28.07;32.23;99154.03;4483122;32;34864;-87
2022/06/13 01:04:36;;;;;;;;;;;;;;;28.09;32.27;99154.81;4482102;32;35296;-86
2022/06/13 01:07:03;;;;;;;;;;;;;;;28.01;32.58;99152.59;4483055;32;32759;-87
2022/06/13 01:12:16;;;;;;;;;;;;;;;28.06;32.71;99141.66;4482177;32;33541;-86
2022/06/13 01:15:04;;;;;;;;;;;;;;;27.88;32.99;99140.94;4482953;32;33861;-87
2022/06/13 01:17:39;;;;;;;;;;;;;;;27.95;32.82;99142.28;4499820;31;33432;-84
2022/06/13 01:20:12;;;;;;;;;;;;;;;27.71;33.34;99138.38;4499061;31;33431;-87
2022/06/13 01:22:58;;;;;;;;;;;;;;;27.80;33.09;99137.88;4498353;31;34417;-85
2022/06/13 01:25:31;;;;;;;;;;;;;;;27.78;33.34;99142.44;4498937;31;33901;-86
2022/06/13 01:28:14;;;;;;;;;;;;;;;27.76;33.30;99139.00;4513892;31;34704;-86
2022/06/13 01:30:59;;;;;;;;;;;;;;;27.80;33.33;99135.19;4514249;31;34015;-86
2022/06/13 01:33:45;;;;;;;;;;;;;;;27.70;33.49;99136.66;4514365;31;33892;-86
2022/06/13 01:36:17;;;;;;;;;;;;;;;27.77;33.25;99122.06;4508842;31;34507;-87
2022/06/13 01:38:54;;;;;;;;;;;;;;;27.75;33.33;99126.63;4498315;31;35093;-86
2022/06/13 01:41:53;;;;;;;;;;;;;;;27.92;33.00;99129.19;4498470;31;32968;-86
2022/06/13 01:44:33;;;;;;;;;;;;;;;27.76;33.11;99131.84;4466707;31;35098;-86
2022/06/13 01:47:06;;;;;;;;;;;;;;;27.61;32.98;99130.03;4513956;31;35303;-86
2022/06/13 01:49:33;;;;;;;;;;;;;;;27.56;32.83;99124.13;4514475;31;33990;-85
2022/06/13 01:52:01;;;;;;;;;;;;;;;27.58;32.67;99125.78;4514106;31;33049;-86
2022/06/13 01:54:47;;;;;;;;;;;;;;;27.56;32.50;99129.47;4509138;31;34004;-87
2022/06/13 01:57:26;;;;;;;;;;;;;;;27.64;32.20;99121.88;4498242;31;35275;-87
2022/06/13 02:00:03;;;;;;;;;;;;;;;27.67;32.16;99120.88;4498069;31;34992;-87
2022/06/13 02:02:42;;;;;;;;;;;;;;;27.65;32.22;99118.28;4496843;31;32825;-87
2022/06/13 02:05:12;;;;;;;;;;;;;;;27.62;32.23;99111.34;4496737;31;34578;-86
2022/06/13 02:07:41;;;;;;;;;;;;;;;27.60;32.23;99117.69;4496416;31;34395;-86
2022/06/13 02:10:34;;;;;;;;;;;;;;;27.53;32.30;99114.50;4496914;31;33828;-86
2022/06/13 02:13:02;;;;;;;;;;;;;;;27.58;32.03;99106.28;4492947;31;33358;-86
2022/06/13 02:15:31;;;;;;;;;;;;;;;27.57;31.99;99116.06;4480948;32;33918;-87
2022/06/13 02:18:04;;;;;;;;;;;;;;;27.49;32.22;99118.31;4480667;32;34263;-86
2022/06/13 02:20:34;;;;;;;;;;;;;;;27.41;32.19;99115.22;4482095;32;34974;-85
2022/06/13 02:23:02;;;;;;;;;;;;;;;27.51;32.29;99113.75;4486100;31;33369;-87
2022/06/13 02:25:31;;;;;;;;;;;;;;;27.55;32.23;99114.44;4498539;31;34018;-85
2022/06/13 02:28:00;;;;;;;;;;;;;;;27.47;32.23;99119.34;4499750;31;34156;-85
2022/06/13 02:30:32;;;;;;;;;;;;;;;27.47;32.29;99114.88;4498805;31;34600;-86
2022/06/13 02:33:05;;;;;;;;;;;;;;;27.48;32.20;99118.41;4506766;31;34259;-85
2022/06/13 02:35:34;;;;;;;;;;;;;;;27.59;32.01;99115.97;4516336;31;33489;-86
2022/06/13 02:38:05;;;;;;;;;;;;;;;27.41;32.37;99113.41;4514958;31;34145;-86
2022/06/13 02:40:34;;;;;;;;;;;;;;;27.42;32.31;99109.81;4512458;31;34384;-86
2022/06/13 02:43:04;;;;;;;;;;;;;;;27.35;32.38;99108.47;4498658;31;33460;-87
2022/06/13 02:45:33;;;;;;;;;;;;;;;27.36;32.18;99104.00;4500000;31;33971;-86
2022/06/13 02:48:04;;;;;;;;;;;;;;;27.25;32.21;99107.25;4498470;31;33814;-87
2022/06/13 02:50:36;;;;;;;;;;;;;;;27.20;32.29;99104.00;4502561;31;34981;-86
2022/06/13 02:53:07;;;;;;;;;;;;;;;27.22;32.11;99103.91;4513955;31;33831;-87
2022/06/13 02:55:41;;;;;;;;;;;;;;;27.34;31.84;99108.53;4515667;31;34469;-85
2022/06/13 02:58:12;;;;;;;;;;;;;;;27.31;31.82;99103.38;4515808;31;34123;-85
2022/06/13 03:00:52;;;;;;;;;;;;;;;27.38;31.80;99112.72;4511909;31;34145;-86
2022/06/13 03:03:29;;;;;;;;;;;;;;;27.40;31.74;99108.19;4499779;31;33473;-87
2022/06/13 03:06:00;;;;;;;;;;;;;;;27.37;31.80;99113.69;4499857;31;33895;-86
2022/06/13 03:08:32;;;;;;;;;;;;;;;27.43;31.83;99108.03;4498622;31;34142;-87
2022/06/13 03:11:09;;;;;;;;;;;;;;;27.44;32.09;99108.87;4492340;31;34178;-87
2022/06/13 03:13:50;;;;;;;;;;;;;;;27.40;32.30;99098.41;4483953;32;33491;-87
2022/06/13 03:16:25;;;;;;;;;;;;;;;27.48;32.28;99102.44;4483831;32;35187;-86
2022/06/13 03:18:54;;;;;;;;;;;;;;;27.51;32.26;99100.44;4482501;32;34252;-87
2022/06/13 03:21:23;;;;;;;;;;;;;;;27.35;32.44;99110.25;4489806;31;33569;-87
2022/06/13 03:23:52;;;;;;;;;;;;;;;27.32;32.52;99111.28;4497838;31;33549;-85
2022/06/13 03:26:20;;;;;;;;;;;;;;;27.46;32.37;99105.16;4498489;31;33854;-87
2022/06/13 03:28:52;;;;;;;;;;;;;;;27.52;32.41;99101.31;4498849;31;34382;-86
2022/06/13 03:31:21;;;;;;;;;;;;;;;27.60;32.31;99105.22;4491070;31;33834;-86
2022/06/13 03:33:49;;;;;;;;;;;;;;;27.58;32.26;99101.81;4481906;31;34002;-85
2022/06/13 03:36:29;;;;;;;;;;;;;;;27.60;32.29;99099.03;4483609;32;34637;-86
2022/06/13 03:39:16;;;;;;;;;;;;;;;27.52;32.49;99096.81;4482799;32;35242;-87
2022/06/13 03:41:45;;;;;;;;;;;;;;;27.67;32.35;99102.22;4501701;31;33816;-85
2022/06/13 03:44:18;;;;;;;;;;;;;;;27.70;32.45;99097.56;4501035;31;33460;-86
2022/06/13 03:46:54;;;;;;;;;;;;;;;27.75;32.60;99089.34;4498349;31;35042;-87
2022/06/13 03:49:23;;;;;;;;;;;;;;;28.20;32.38;99092.88;4499564;31;34131;-87
2022/06/13 03:51:52;;;;;;;;;;;;;;;28.69;31.57;99097.88;4497722;31;34109;-87
2022/06/13 03:54:23;;;;;;;;;;;;;;;29.01;31.07;99093.19;4499216;31;33893;-86
2022/06/13 03:57:06;;;;;;;;;;;;;;;29.38;30.85;99093.47;4498086;31;34279;-86
2022/06/13 03:59:46;;;;;;;;;;;;;;;29.69;30.34;99092.31;4496586;31;34399;-86
2022/06/13 04:02:15;;;;;;;;;;;;;;;29.97;29.99;99094.84;4499535;31;35003;-84
2022/06/13 04:04:46;;;;;;;;;;;;;;;30.27;29.89;99091.06;4488756;31;33630;-85
2022/06/13 04:07:14;;;;;;;;;;;;;;;30.54;29.75;99091.78;4489389;31;34384;-85
2022/06/13 04:10:00;;;;;;;;;;;;;;;30.87;29.18;99086.81;4499159;31;34816;-85
2022/06/13 04:12:36;;;;;;;;;;;;;;;31.00;29.25;99080.47;4499305;31;34056;-85
2022/06/13 04:15:37;;;;;;;;;;;;;;;31.10;29.29;99082.47;4498089;31;33253;-84
2022/06/13 04:18:04;;;;;;;;;;;;;;;30.70;29.34;99082.66;4448657;31;35191;-85
2022/06/13 04:20:52;;;;;;;;;;;;;;;31.22;29.39;99086.94;4483244;32;35225;-85
2022/06/13 04:23:21;;;;;;;;;;;;;;;31.26;29.32;99088.44;4481996;32;34263;-85
2022/06/13 04:26:01;;;;;;;;;;;;;;;31.67;29.12;99076.47;4485214;31;34310;-84
2022/06/13 04:28:33;;;;;;;;;;;;;;;32.37;28.55;99086.28;4482043;32;35051;-87
2022/06/13 04:31:01;;;;;;;;;;;;;;;32.81;28.02;99088.16;4486568;31;35356;-85
2022/06/13 04:33:33;;;;;;;;;;;;;;;32.84;28.35;99097.78;4499243;31;34147;-84
2022/06/13 04:36:00;;;;;;;;;;;;;;;32.96;28.28;99094.19;4497510;31;33504;-85
2022/06/13 04:38:28;;;;;;;;;;;;;;;32.96;28.38;99095.97;4505408;31;34124;-86
2022/06/13 04:40:56;;;;;;;;;;;;;;;33.09;28.49;99104.75;4508571;31;35274;-84
2022/06/13 04:43:27;;;;;;;;;;;;;;;33.52;28.38;99095.88;4492525;31;34174;-85
2022/06/13 04:46:21;;;;;;;;;;;;;;;33.71;28.15;99090.66;4480651;32;34060;-85
2022/06/13 04:48:49;;;;;;;;;;;;;;;33.75;28.18;99091.25;4496929;31;34246;-85
2022/06/13 04:51:17;;;;;;;;;;;;;;;33.74;28.30;99085.03;4497465;31;34434;-85
2022/06/13 04:53:44;;;;;;;;;;;;;;;33.74;28.69;99086.87;4497327;31;34233;-85
2022/06/13 04:56:12;;;;;;;;;;;;;;;33.52;28.84;99088.66;4503767;31;33354;-85
2022/06/13 04:58:39;;;;;;;;;;;;;;;33.23;29.04;99091.06;4502086;31;33718;-85
2022/06/13 05:01:10;;;;;;;;;;;;;;;33.62;28.92;99094.13;4497686;31;33768;-85
2022/06/13 05:03:38;;;;;;;;;;;;;;;32.79;30.24;99095.47;4497742;31;33821;-85
2022/06/13 05:06:06;;;;;;;;;;;;;;;32.22;30.32;99093.72;4495995;31;34378;-84
2022/06/13 05:08:34;;;;;;;;;;;;;;;32.01;30.47;99093.53;4514517;31;35128;-86
2022/06/13 05:11:04;;;;;;;;;;;;;;;32.25;30.39;99096.16;4513458;31;34312;-85
2022/06/13 05:13:31;;;;;;;;;;;;;;;31.07;32.48;99101.47;4514741;31;35121;-85
2022/06/13 05:16:00;;;;;;;;;;;;;;;32.45;30.67;99090.09;4508264;31;32910;-86
2022/06/13 05:18:50;;;;;;;;;;;;;;;31.72;31.56;99087.69;4499344;31;33806;-85
2022/06/13 05:22:00;;;;;;;;;;;;;;;32.10;30.81;99092.00;4503113;31;34482;-85
2022/06/13 05:24:43;;;;;;;;;;;;;;;33.81;28.46;99091.59;4448875;32;34190;-85
2022/06/13 05:27:11;;;;;;;;;;;;;;;33.04;28.42;99101.59;4436232;32;33789;-85
2022/06/13 05:29:38;;;;;;;;;;;;;;;34.16;27.46;99100.38;4478454;31;34129;-84
2022/06/13 05:32:06;;;;;;;;;;;;;;;34.57;27.82;99104.88;4498957;31;34520;-85
2022/06/13 05:34:34;;;;;;;;;;;;;;;34.44;28.83;99104.19;4494326;31;33737;-85
2022/06/13 05:37:02;;;;;;;;;;;;;;;33.74;29.66;99106.53;4494987;31;34139;-84
2022/06/13 05:39:29;;;;;;;;;;;;;;;33.22;28.46;99100.06;4485636;31;33554;-86
2022/06/13 05:41:56;;;;;;;;;;;;;;;32.94;29.33;99096.97;4488131;31;35169;-86
2022/06/13 05:44:24;;;;;;;;;;;;;;;33.25;30.34;99093.59;4513134;31;33874;-86
2022/06/13 05:46:51;;;;;;;;;;;;;;;34.03;27.06;99095.19;4513994;31;34221;-85
2022/06/13 05:49:18;;;;;;;;;;;;;;;33.98;28.09;99094.69;4512847;31;33620;-85
2022/06/13 05:51:46;;;;;;;;;;;;;;;33.09;26.98;99088.66;4512518;31;35203;-86
2022/06/13 05:54:13;;;;;;;;;;;;;;;33.77;25.44;99089.31;4513715;31;34545;-86
2022/06/13 05:56:40;;;;;;;;;;;;;;;33.51;26.46;99086.13;4515422;31;32824;-85
2022/06/13 05:59:08;;;;;;;;;;;;;;;34.65;26.74;99096.13;4514972;31;35165;-86
2022/06/13 06:01:36;;;;;;;;;;;;;;;34.53;26.17;99090.84;4516052;31;35301;-86
2022/06/13 06:04:03;;;;;;;;;;;;;;;34.70;25.41;99085.78;4515968;31;35009;-86
2022/06/13 06:06:32;;;;;;;;;;;;;;;34.71;24.20;99090.22;4516271;31;33553;-85
2022/06/13 06:08:59;;;;;;;;;;;;;;;34.68;25.57;99085.94;4514727;31;35059;-84
2022/06/13 06:11:27;;;;;;;;;;;;;;;33.66;23.31;99087.50;4514750;31;34324;-86
2022/06/13 06:13:56;;;;;;;;;;;;;;;33.93;23.25;99088.84;4516115;31;33803;-84
2022/06/13 06:16:24;;;;;;;;;;;;;;;34.50;22.47;99087.56;4515877;31;33466;-85
2022/06/13 06:18:52;;;;;;;;;;;;;;;33.90;22.64;99085.44;4516195;31;33908;-86
2022/06/13 06:21:19;;;;;;;;;;;;;;;33.94;22.71;99079.78;4516047;31;34099;-86
2022/06/13 06:23:47;;;;;;;;;;;;;;;34.38;21.79;99081.38;4516040;31;34023;-83
2022/06/13 06:26:22;;;;;;;;;;;;;;;33.54;22.27;99077.81;4515980;31;34931;-86
2022/06/13 06:28:49;;;;;;;;;;;;;;;32.38;24.77;99086.16;4514848;31;34008;-85
2022/06/13 06:31:17;;;;;;;;;;;;;;;33.15;23.78;99085.47;4515755;31;34386;-86
2022/06/13 06:33:44;;;;;;;;;;;;;;;32.91;26.55;99089.13;4515686;31;34099;-84
2022/06/13 06:36:15;;;;;;;;;;;;;;;33.97;24.96;99087.59;4515960;31;33216;-86
2022/06/13 06:38:42;;;;;;;;;;;;;;;33.04;25.60;99094.41;4515944;31;33833;-85
2022/06/13 06:41:09;;;;;;;;;;;;;;;33.39;23.72;99091.50;4514584;31;35262;-85
2022/06/13 06:43:36;;;;;;;;;;;;;;;32.83;23.89;99088.03;4515828;31;33870;-86
2022/06/13 06:46:04;;;;;;;;;;;;;;;33.32;23.53;99092.97;4515922;31;32730;-85
2022/06/13 06:48:32;;;;;;;;;;;;;;;32.96;25.88;99094.19;4515948;31;33865;-85
2022/06/13 06:50:59;;;;;;;;;;;;;;;32.72;25.15;99093.41;4515751;31;34280;-86
2022/06/13 06:53:26;;;;;;;;;;;;;;;33.20;23.77;99085.09;4515577;31;33945;-83
2022/06/13 07:01:26;;;;;;;;;;;;;;;33.11;24.97;99087.56;4514536;31;33781;-83
2022/06/13 07:03:54;;;;;;;;;;;;;;;33.84;23.38;99085.13;4515330;31;34872;-86
2022/06/13 07:06:21;;;;;;;;;;;;;;;34.51;24.49;99094.63;4515632;31;33316;-86
2022/06/13 07:08:49;;;;;;;;;;;;;;;34.57;22.59;99094.09;4513728;31;34423;-85
2022/06/13 07:14:04;;;;;;;;;;;;;;;33.02;24.99;99101.72;4514412;31;35001;-86
2022/06/13 07:16:31;;;;;;;;;;;;;;;34.36;23.71;99100.38;4515315;31;34253;-83
2022/06/13 07:18:59;;;;;;;;;;;;;;;33.40;24.03;99095.88;4515513;31;35005;-85
2022/06/13 07:21:26;;;;;;;;;;;;;;;32.29;26.00;99100.31;4515538;31;34257;-86
2022/06/13 07:23:53;;;;;;;;;;;;;;;32.43;26.20;99093.91;4514091;31;34391;-85
2022/06/13 07:26:20;;;;;;;;;;;;;;;32.81;25.69;99098.91;4515556;31;33407;-83
2022/06/13 07:28:54;;;;;;;;;;;;;;;32.99;24.31;99090.38;4514411;31;34818;-84
2022/06/13 07:31:31;;;;;;;;;;;;;;;32.09;25.74;99091.16;4515439;31;34051;-85
2022/06/13 07:33:59;;;;;;;;;;;;;;;33.18;27.70;99095.94;4514401;31;34126;-85
2022/06/13 07:36:26;;;;;;;;;;;;;;;33.40;25.25;99092.34;4515723;31;33583;-83
2022/06/13 07:38:53;;;;;;;;;;;;;;;33.52;25.72;99096.72;4515522;31;34362;-85
2022/06/13 07:41:21;;;;;;;;;;;;;;;33.75;24.64;99093.94;4515379;31;34457;-83
2022/06/13 07:43:49;;;;;;;;;;;;;;;32.61;26.04;99088.91;4514124;31;35115;-85
2022/06/13 07:46:24;;;;;;;;;;;;;;;32.97;25.86;99095.03;4513994;31;34150;-85
2022/06/13 07:48:51;;;;;;;;;;;;;;;32.08;26.67;99093.91;4513896;31;34943;-83
2022/06/13 07:51:19;;;;;;;;;;;;;;;33.21;25.50;99093.00;4515179;31;34294;-85
2022/06/13 07:53:46;;;;;;;;;;;;;;;32.91;25.45;99091.81;4515258;31;34891;-85
2022/06/13 07:56:25;;;;;;;;;;;;;;;33.08;25.75;99092.31;4515152;31;33496;-85
2022/06/13 07:58:52;;;;;;;;;;;;;;;33.55;25.03;99090.25;4515471;31;34248;-83
2022/06/13 08:01:20;;;;;;;;;;;;;;;33.94;24.16;99091.41;4513811;31;34369;-84
2022/06/13 08:03:48;;;;;;;;;;;;;;;34.00;23.84;99087.37;4515181;31;34131;-85
2022/06/13 08:06:15;;;;;;;;;;;;;;;33.99;24.59;99091.06;4514002;31;33559;-84
2022/06/13 08:08:45;;;;;;;;;;;;;;;34.62;23.41;99081.94;4515403;31;35040;-84
2022/06/13 08:11:17;;;;;;;;;;;;;;;35.16;22.77;99079.88;4514003;31;34005;-85
2022/06/13 08:13:44;;;;;;;;;;;;;;;35.26;22.39;99075.34;4515155;31;35303;-85
2022/06/13 08:16:11;;;;;;;;;;;;;;;33.57;25.44;99072.19;4515111;31;33755;-85
2022/06/13 08:18:40;;;;;;;;;;;;;;;34.57;23.27;99072.56;4514762;31;34174;-84
2022/06/13 08:21:07;;;;;;;;;;;;;;;32.03;26.01;99072.84;4514037;31;34482;-86
2022/06/13 08:23:34;;;;;;;;;;;;;;;33.19;27.00;99073.50;4515048;31;34959;-86
2022/06/13 08:26:02;;;;;;;;;;;;;;;33.47;25.05;99073.91;4514993;31;33374;-85
2022/06/13 08:28:29;;;;;;;;;;;;;;;33.05;25.04;99076.44;4515156;31;35764;-83
2022/06/13 08:30:56;;;;;;;;;;;;;;;33.14;25.53;99071.16;4514897;31;33948;-84
2022/06/13 08:33:24;;;;;;;;;;;;;;;32.97;26.17;99073.53;4514953;31;34449;-84
2022/06/13 08:35:51;;;;;;;;;;;;;;;33.30;26.21;99077.94;4515052;31;33233;-84
2022/06/13 08:38:19;;;;;;;;;;;;;;;33.01;25.68;99070.47;4513611;31;34117;-83
2022/06/13 08:40:55;;;;;;;;;;;;;;;32.08;26.99;99076.00;4515148;31;34104;-85
2022/06/13 08:43:54;;;;;;;;;;;;;;;33.48;25.47;99068.41;4514837;31;34146;-82
2022/06/13 08:46:24;;;;;;;;;;;;;;;33.64;25.54;99067.97;4512399;31;33208;-83
2022/06/13 08:48:55;;;;;;;;;;;;;;;33.50;25.57;99076.34;4514947;31;33613;-85
2022/06/13 08:51:33;;;;;;;;;;;;;;;34.57;23.40;99073.41;4513808;31;34551;-85
2022/06/13 08:54:00;;;;;;;;;;;;;;;34.47;24.19;99071.63;4514900;31;35154;-85
2022/06/13 08:56:29;;;;;;;;;;;;;;;33.59;25.07;99064.81;4514702;31;33395;-85
2022/06/13 08:59:22;;;;;;;;;;;;;;;33.71;24.39;99065.63;4513465;31;33986;-86
2022/06/13 09:01:57;;;;;;;;;;;;;;;33.24;26.58;99071.25;4513593;31;34044;-85
2022/06/13 09:04:29;;;;;;;;;;;;;;;34.15;24.93;99067.22;4513507;31;34355;-85
2022/06/13 09:07:01;;;;;;;;;;;;;;;34.37;24.50;99060.84;4513237;31;33628;-83
2022/06/13 09:09:47;;;;;;;;;;;;;;;34.97;23.26;99067.19;4514885;31;34341;-85
2022/06/13 09:12:22;;;;;;;;;;;;;;;33.53;25.24;99057.28;4514467;31;35313;-83
2022/06/13 09:14:52;;;;;;;;;;;;;;;32.39;27.60;99050.34;4513385;31;34260;-86
2022/06/13 09:17:46;;;;;;;;;;;;;;;34.14;26.21;99054.78;4514436;31;33442;-85
2022/06/13 09:20:24;;;;;;;;;;;;;;;33.83;25.33;99057.38;4490237;31;34009;-83
2022/06/13 09:22:52;;;;;;;;;;;;;;;33.65;26.34;99049.03;4514323;31;34137;-85
2022/06/13 09:25:22;;;;;;;;;;;;;;;33.16;24.69;99045.03;4514735;31;34389;-86
2022/06/13 09:27:54;;;;;;;;;;;;;;;32.64;26.68;99040.34;4514309;31;33435;-86
2022/06/13 09:30:23;;;;;;;;;;;;;;;32.23;28.01;99036.41;4513195;31;34812;-85
2022/06/13 09:32:53;;;;;;;;;;;;;;;32.29;26.51;99035.06;4515486;31;34270;-83
2022/06/13 09:35:25;;;;;;;;;;;;;;;33.74;26.65;99031.25;4515143;31;34035;-85
2022/06/13 09:37:57;;;;;;;;;;;;;;;33.06;26.73;99024.44;4515211;31;32761;-84
2022/06/13 09:40:28;;;;;;;;;;;;;;;33.32;24.91;99025.81;4515127;31;34036;-83
2022/06/13 09:43:10;;;;;;;;;;;;;;;33.51;24.66;99016.22;4502146;31;34081;-85
2022/06/13 09:45:40;;;;;;;;;;;;;;;32.69;26.13;99027.38;4515335;31;33885;-85
2022/06/13 09:48:20;;;;;;;;;;;;;;;32.93;24.99;99017.37;4515020;31;34527;-85
2022/06/13 09:51:07;;;;;;;;;;;;;;;31.86;26.93;99022.31;4515323;31;34118;-86
2022/06/13 09:53:34;;;;;;;;;;;;;;;31.25;28.24;99011.72;4516451;31;34323;-86
2022/06/13 09:56:03;;;;;;;;;;;;;;;31.76;27.83;99011.44;4516138;31;34741;-86
2022/06/13 09:58:43;;;;;;;;;;;;;;;33.18;26.24;99013.50;4516252;31;34067;-85
2022/06/13 10:01:43;;;;;;;;;;;;;;;32.99;27.14;99007.09;4514944;31;34947;-83
2022/06/13 10:04:34;;;;;;;;;;;;;;;33.32;25.22;99006.16;4516217;31;35150;-84
2022/06/13 10:07:21;;;;;;;;;;;;;;;32.49;25.84;98996.81;4514953;31;34235;-85
2022/06/13 10:10:07;;;;;;;;;;;;;;;33.88;24.93;98993.28;4516247;31;32090;-84
2022/06/13 10:12:43;;;;;;;;;;;;;;;33.06;27.52;99000.25;4516214;31;34805;-84
2022/06/13 10:15:23;;;;;;;;;;;;;;;32.96;25.47;98992.12;4516194;31;34299;-83
2022/06/13 10:18:09;;;;;;;;;;;;;;;33.26;25.34;98988.69;4516356;31;34200;-86
2022/06/13 10:20:37;;;;;;;;;;;;;;;32.59;28.67;98994.25;4516119;31;33554;-85
2022/06/13 10:23:22;;;;;;;;;;;;;;;32.43;27.79;98992.78;4515912;31;34084;-85
2022/06/13 10:25:58;;;;;;;;;;;;;;;33.68;25.48;98988.78;4514421;31;34947;-86
2022/06/13 10:28:25;;;;;;;;;;;;;;;32.94;27.09;98988.69;4514813;31;34278;-85
2022/06/13 10:31:11;;;;;;;;;;;;;;;33.78;25.86;98978.06;4516297;31;33267;-82
2022/06/13 10:33:46;;;;;;;;;;;;;;;33.87;25.38;98977.28;4515952;31;34685;-85
2022/06/13 10:36:19;;;;;;;;;;;;;;;33.71;25.81;98974.19;4514590;31;35256;-86
2022/06/13 10:38:46;;;;;;;;;;;;;;;34.50;24.47;98964.56;4514847;31;34302;-85
2022/06/13 10:41:13;;;;;;;;;;;;;;;33.71;25.79;98966.97;4515692;31;33475;-85
2022/06/13 10:43:42;;;;;;;;;;;;;;;33.47;26.37;98966.41;4515607;31;33937;-82
2022/06/13 10:46:11;;;;;;;;;;;;;;;34.06;24.99;98965.81;4514703;31;34845;-85
2022/06/13 10:48:42;;;;;;;;;;;;;;;33.31;26.05;98962.31;4515897;31;35177;-85
2022/06/13 10:51:09;;;;;;;;;;;;;;;34.21;25.38;98952.81;4514429;31;34308;-86
2022/06/13 10:53:41;;;;;;;;;;;;;;;33.52;26.85;98956.97;4515865;31;34755;-85
2022/06/13 10:56:19;;;;;;;;;;;;;;;33.70;27.15;98951.84;4514391;31;35335;-85
2022/06/13 10:58:47;;;;;;;;;;;;;;;33.71;26.47;98948.16;4514556;31;33872;-83
2022/06/13 11:01:21;;;;;;;;;;;;;;;32.80;26.65;98936.09;4515798;31;33589;-84
2022/06/13 11:04:04;;;;;;;;;;;;;;;33.99;24.27;98940.44;4515406;31;34343;-85
2022/06/13 11:06:39;;;;;;;;;;;;;;;33.94;26.98;98939.94;4515761;31;34292;-85
2022/06/13 11:09:18;;;;;;;;;;;;;;;33.79;26.42;98943.00;4515302;31;34074;-85
2022/06/13 11:11:46;;;;;;;;;;;;;;;33.29;26.66;98940.06;4514414;31;33533;-85
2022/06/13 11:14:28;;;;;;;;;;;;;;;33.68;27.73;98929.62;4515302;31;33817;-87
2022/06/13 11:22:38;;;;;;;;;;;;;;;33.94;25.83;98930.03;4482737;31;33002;-85
2022/06/13 11:25:08;;;;;;;;;;;;;;;33.78;25.65;98927.81;4514234;31;34088;-86
2022/06/13 11:27:41;;;;;;;;;;;;;;;33.75;25.73;98929.94;4515688;31;35276;-86
2022/06/13 11:30:27;;;;;;;;;;;;;;;33.72;26.10;98931.06;4514243;31;34896;-86
2022/06/13 11:33:10;;;;;;;;;;;;;;;33.93;26.34;98927.47;4515505;31;33672;-86
2022/06/13 11:35:40;;;;;;;;;;;;;;;32.60;28.58;98926.16;4515708;31;34491;-84
2022/06/13 11:38:14;;;;;;;;;;;;;;;33.37;27.92;98924.16;4515401;31;34462;-83
2022/06/13 11:40:42;;;;;;;;;;;;;;;33.33;29.33;98920.03;4515237;31;35160;-85
2022/06/13 11:43:19;;;;;;;;;;;;;;;33.33;29.06;98924.53;4515457;31;33595;-85
2022/06/13 11:45:53;;;;;;;;;;;;;;;33.18;30.94;98921.31;4515609;31;34643;-85
2022/06/13 11:48:20;;;;;;;;;;;;;;;32.51;30.65;98916.19;4514074;31;34359;-86
2022/06/13 11:50:52;;;;;;;;;;;;;;;33.03;30.80;98904.66;4515502;31;33952;-86
2022/06/13 11:53:37;;;;;;;;;;;;;;;32.87;30.12;98902.38;4513019;31;33118;-86
2022/06/13 11:56:07;;;;;;;;;;;;;;;33.51;31.55;98908.72;4514347;31;34264;-86
2022/06/13 11:58:37;;;;;;;;;;;;;;;34.05;29.69;98894.16;4513900;31;35136;-86
2022/06/13 12:01:12;;;;;;;;;;;;;;;33.18;30.33;98897.16;4514070;31;34872;-85
2022/06/13 12:03:47;;;;;;;;;;;;;;;32.82;31.19;98893.88;4514001;31;33158;-86
2022/06/13 12:06:16;;;;;;;;;;;;;;;33.99;28.69;98894.72;4515287;31;34208;-86
2022/06/13 12:08:48;;;;;;;;;;;;;;;32.70;29.13;98893.06;4515161;31;34812;-86
2022/06/13 12:11:15;;;;;;;;;;;;;;;33.52;28.31;98886.22;4513933;31;34842;-86
2022/06/13 12:13:43;;;;;;;;;;;;;;;32.01;29.46;98897.78;4515366;31;33136;-85
2022/06/13 12:16:20;;;;;;;;;;;;;;;31.78;28.97;98888.00;4515266;31;34384;-85
2022/06/13 12:19:06;;;;;;;;;;;;;;;32.51;30.33;98873.25;4515160;31;35333;-84
2022/06/13 12:21:33;;;;;;;;;;;;;;;32.36;28.06;98861.91;4514964;31;34361;-86
2022/06/13 12:24:04;;;;;;;;;;;;;;;31.95;29.25;98868.78;4515381;31;33503;-86
2022/06/13 12:26:31;;;;;;;;;;;;;;;33.35;27.66;98868.84;4515214;31;34068;-85
2022/06/13 12:29:02;;;;;;;;;;;;;;;33.27;29.45;98877.56;4513796;31;34877;-87
2022/06/13 12:31:49;;;;;;;;;;;;;;;33.88;27.65;98866.88;4515008;31;35341;-86
2022/06/13 12:34:23;;;;;;;;;;;;;;;32.32;30.94;98871.19;4496127;31;33636;-84
2022/06/13 12:36:59;;;;;;;;;;;;;;;33.20;29.41;98867.47;4483554;31;34982;-85
2022/06/13 12:39:29;;;;;;;;;;;;;;;32.40;29.81;98858.88;4486963;31;34446;-86
2022/06/13 12:42:00;;;;;;;;;;;;;;;33.40;28.79;98866.59;4498466;31;34186;-84
2022/06/13 12:44:42;;;;;;;;;;;;;;;33.77;28.33;98864.28;4496833;31;33447;-85
2022/06/13 12:47:09;;;;;;;;;;;;;;;33.82;28.14;98855.81;4498321;31;34782;-85
2022/06/13 12:49:45;;;;;;;;;;;;;;;32.23;28.85;98854.00;4498039;31;35311;-84
2022/06/13 12:52:30;;;;;;;;;;;;;;;33.48;27.95;98852.53;4497788;31;34377;-88
2022/06/13 12:55:09;;;;;;;;;;;;;;;33.21;28.88;98845.00;4498093;31;32600;-86
2022/06/13 12:57:54;;;;;;;;;;;;;;;32.77;28.86;98849.59;4496790;31;34964;-86
2022/06/13 13:00:25;;;;;;;;;;;;;;;33.20;30.34;98854.91;4496835;31;34464;-85
2022/06/13 13:03:11;;;;;;;;;;;;;;;32.51;32.18;98857.16;4496184;31;34571;-84
2022/06/13 13:05:43;;;;;;;;;;;;;;;32.35;33.25;98862.88;4497239;31;34561;-84
2022/06/13 13:08:18;;;;;;;;;;;;;;;33.76;30.66;98851.84;4497171;31;34605;-86
2022/06/13 13:11:04;;;;;;;;;;;;;;;33.19;32.28;98861.25;4497363;31;34380;-85
2022/06/13 13:13:50;;;;;;;;;;;;;;;32.32;32.42;98866.69;4498642;31;34873;-84
2022/06/13 13:16:35;;;;;;;;;;;;;;;32.08;33.01;98868.66;4498446;31;33258;-84
2022/06/13 13:19:26;;;;;;;;;;;;;;;32.47;32.34;98867.28;4497403;31;33537;-85
2022/06/13 13:21:59;;;;;;;;;;;;;;;32.37;32.71;98866.28;4490572;31;34246;-86
2022/06/13 13:24:42;;;;;;;;;;;;;;;31.90;33.68;98874.53;4496960;31;34339;-85
2022/06/13 13:27:10;;;;;;;;;;;;;;;31.55;33.88;98885.31;4498496;31;33770;-83
2022/06/13 13:29:41;;;;;;;;;;;;;;;32.27;32.75;98882.28;4496973;31;33644;-87
2022/06/13 13:32:27;;;;;;;;;;;;;;;32.63;31.80;98883.81;4498362;31;34127;-85